Etusivu
METAR-TAF:

METAR-TAF

Lentoasemat :

Ciudad Juárez, Meksiko

Leveyspiiri: 31-38N, Pituuspiiri: 106-26W, korkeus merenpinnasta: 1171 m

Tämänhetkinen sää

Tämä raportti tehtiin 48 minuuttia sitten, kello 21.40 UTC
Tuuli 6 kn pohjoisesta/koillisesta
Lämpötila 21°C
Kosteus 23%
Ilmanpaine 1021 hPa
Näkyvyys: 16.1 km
Hajanaisia pilviä 20000 ft:n korkeudessa

METAR: MMCS 302140Z 03006KT 10SM SCT200 21/M01 A3016 RMK 8/001

Aika: 15:28 (22:28 UTC)

Sääennuste

Tämä raportti tehtiin 5 tuntia ja 14 minuuttia sitten, kello 17.14 UTC
Ennuste voimassa 30. päivästä klo 18 UTC - 31. päivään klo 18 UTC
Tuuli 15 kn idästä
Näkyvyys: 10 km
selkeää
Tulossa
31. päivästä klo 00 UTC - 31. päivään klo 01 UTC
Tuuli kn pohjoisesta
From 31. päivästä klo 1500 UTC
Tuuli 10 kn kaakosta
Näkyvyys: 10 km
selkeää

TAF: MMCS 301714Z 3018/3118 10015KT P6SM SKC BECMG 3100/3101 00000KT FM311500 14010KT P6SM SKC

Säähavainnot ja -ennusteet yli 4000 lentoasemalta (METAR- ja TAF-raportit).

Käytössä olevat sääasemat on merkitty karttaan keltaisilla ja punaisilla pisteillä.

Aseta hiiri pisteen päälle nähdäksesi sääaseman nimen.

Klikkaa sitten nähdäksesi säähavainnot ja -ennusteet.

Kartan vaihtaminen: klikkaa mustalla rastilla varustettuja vihreitä pisteitä, niin voit zoomata sisään; viivalla varustettua vihreää pistettä, niin voit zoomata ulos tai vihreitä nuolia, niin pääset viereisille kartoille.


METAR-TAF: